sensor_id;sensor_type;location;lat;lon;timestamp;temperature;humidity
19437;DHT22;9854;50.968;4.168;2024-02-23T00:01:23;6.30;99.90
19437;DHT22;9854;50.968;4.168;2024-02-23T00:03:49;6.30;99.90
19437;DHT22;9854;50.968;4.168;2024-02-23T00:06:15;6.30;99.90
19437;DHT22;9854;50.968;4.168;2024-02-23T00:08:41;6.30;99.90
19437;DHT22;9854;50.968;4.168;2024-02-23T00:11:07;6.30;99.90
19437;DHT22;9854;50.968;4.168;2024-02-23T00:13:33;6.40;99.90
19437;DHT22;9854;50.968;4.168;2024-02-23T00:15:59;6.30;99.90
19437;DHT22;9854;50.968;4.168;2024-02-23T00:18:24;6.30;99.90
19437;DHT22;9854;50.968;4.168;2024-02-23T00:20:52;6.30;99.90
19437;DHT22;9854;50.968;4.168;2024-02-23T00:23:18;6.30;99.90
19437;DHT22;9854;50.968;4.168;2024-02-23T00:25:44;6.20;99.90
19437;DHT22;9854;50.968;4.168;2024-02-23T00:28:10;6.30;99.90
19437;DHT22;9854;50.968;4.168;2024-02-23T00:30:36;6.30;99.90
19437;DHT22;9854;50.968;4.168;2024-02-23T00:33:01;6.20;99.90
19437;DHT22;9854;50.968;4.168;2024-02-23T00:35:27;6.20;99.90
19437;DHT22;9854;50.968;4.168;2024-02-23T00:37:53;6.20;99.90
19437;DHT22;9854;50.968;4.168;2024-02-23T00:40:18;6.20;99.90
19437;DHT22;9854;50.968;4.168;2024-02-23T00:42:44;6.10;99.90
19437;DHT22;9854;50.968;4.168;2024-02-23T00:45:10;6.10;99.90
19437;DHT22;9854;50.968;4.168;2024-02-23T00:47:35;6.10;99.90
19437;DHT22;9854;50.968;4.168;2024-02-23T00:50:02;6.00;99.90
19437;DHT22;9854;50.968;4.168;2024-02-23T00:52:33;6.00;99.90
19437;DHT22;9854;50.968;4.168;2024-02-23T00:54:59;6.00;99.90
19437;DHT22;9854;50.968;4.168;2024-02-23T00:57:25;5.90;99.90
19437;DHT22;9854;50.968;4.168;2024-02-23T00:59:58;5.90;99.90
19437;DHT22;9854;50.968;4.168;2024-02-23T01:02:23;5.90;99.90
19437;DHT22;9854;50.968;4.168;2024-02-23T01:04:49;5.80;99.90
19437;DHT22;9854;50.968;4.168;2024-02-23T01:07:17;5.80;99.90
19437;DHT22;9854;50.968;4.168;2024-02-23T01:09:42;5.70;99.90
19437;DHT22;9854;50.968;4.168;2024-02-23T01:12:08;5.80;99.90
19437;DHT22;9854;50.968;4.168;2024-02-23T01:14:34;5.90;99.90
19437;DHT22;9854;50.968;4.168;2024-02-23T01:16:59;5.80;99.90
19437;DHT22;9854;50.968;4.168;2024-02-23T01:19:25;5.80;99.90
19437;DHT22;9854;50.968;4.168;2024-02-23T01:21:51;5.80;99.90
19437;DHT22;9854;50.968;4.168;2024-02-23T01:24:27;5.80;99.90
19437;DHT22;9854;50.968;4.168;2024-02-23T01:26:55;5.80;99.90
19437;DHT22;9854;50.968;4.168;2024-02-23T01:29:21;5.90;99.90
19437;DHT22;9854;50.968;4.168;2024-02-23T01:31:48;5.80;99.90
19437;DHT22;9854;50.968;4.168;2024-02-23T01:34:16;5.90;99.90
19437;DHT22;9854;50.968;4.168;2024-02-23T01:36:44;5.90;99.90
19437;DHT22;9854;50.968;4.168;2024-02-23T01:39:10;5.90;99.90
19437;DHT22;9854;50.968;4.168;2024-02-23T01:41:36;5.90;99.90
19437;DHT22;9854;50.968;4.168;2024-02-23T01:44:02;5.90;99.90
19437;DHT22;9854;50.968;4.168;2024-02-23T01:46:30;5.90;99.90
19437;DHT22;9854;50.968;4.168;2024-02-23T01:48:57;5.80;99.90
19437;DHT22;9854;50.968;4.168;2024-02-23T01:51:23;6.00;99.90
19437;DHT22;9854;50.968;4.168;2024-02-23T01:53:50;5.90;99.90
19437;DHT22;9854;50.968;4.168;2024-02-23T01:56:16;5.90;99.90
19437;DHT22;9854;50.968;4.168;2024-02-23T01:58:47;5.80;99.90
19437;DHT22;9854;50.968;4.168;2024-02-23T02:01:14;5.90;99.90
19437;DHT22;9854;50.968;4.168;2024-02-23T02:03:39;5.90;99.90
19437;DHT22;9854;50.968;4.168;2024-02-23T02:06:09;5.90;99.90
19437;DHT22;9854;50.968;4.168;2024-02-23T02:08:36;5.80;99.90
19437;DHT22;9854;50.968;4.168;2024-02-23T02:11:04;5.80;99.90
19437;DHT22;9854;50.968;4.168;2024-02-23T02:13:30;5.80;99.90
19437;DHT22;9854;50.968;4.168;2024-02-23T02:16:00;5.80;99.90
19437;DHT22;9854;50.968;4.168;2024-02-23T02:18:27;5.70;99.90
19437;DHT22;9854;50.968;4.168;2024-02-23T02:20:59;5.70;99.90
19437;DHT22;9854;50.968;4.168;2024-02-23T02:23:24;5.80;99.90
19437;DHT22;9854;50.968;4.168;2024-02-23T02:25:57;5.80;99.90
19437;DHT22;9854;50.968;4.168;2024-02-23T02:28:24;5.90;99.90
19437;DHT22;9854;50.968;4.168;2024-02-23T02:30:53;5.80;99.90
19437;DHT22;9854;50.968;4.168;2024-02-23T02:33:23;5.90;99.90
19437;DHT22;9854;50.968;4.168;2024-02-23T02:35:49;5.80;99.90
19437;DHT22;9854;50.968;4.168;2024-02-23T02:38:15;5.90;99.90
19437;DHT22;9854;50.968;4.168;2024-02-23T02:40:41;5.90;99.90
19437;DHT22;9854;50.968;4.168;2024-02-23T02:43:07;5.90;99.90
19437;DHT22;9854;50.968;4.168;2024-02-23T02:45:33;5.90;99.90
19437;DHT22;9854;50.968;4.168;2024-02-23T02:48:02;6.00;99.90
19437;DHT22;9854;50.968;4.168;2024-02-23T02:50:28;6.00;99.90
19437;DHT22;9854;50.968;4.168;2024-02-23T02:52:53;5.90;99.90
19437;DHT22;9854;50.968;4.168;2024-02-23T02:55:19;5.90;99.90
19437;DHT22;9854;50.968;4.168;2024-02-23T02:57:45;6.00;99.90
19437;DHT22;9854;50.968;4.168;2024-02-23T03:00:11;5.90;99.90
19437;DHT22;9854;50.968;4.168;2024-02-23T03:02:37;6.00;99.90
19437;DHT22;9854;50.968;4.168;2024-02-23T03:05:03;5.90;99.90
19437;DHT22;9854;50.968;4.168;2024-02-23T03:07:29;5.90;99.90
19437;DHT22;9854;50.968;4.168;2024-02-23T03:09:54;5.90;99.90
